Time;durP1;ratioP1;P1;durP2;ratioP2;P2;SDS_P1;SDS_P2;PMS_P1;PMS_P2;Temp;Humidity;BMP_temperature;BMP_pressure;BME280_temperature;BME280_humidity;BME280_pressure;Samples;Min_cycle;Max_cycle;Signal;HPM_P1;HPM_P2
2023/12/14 00:01:52;;;;;;;18.70;16.90;;;;;;;;;;5076579;28;20482;-60
2023/12/14 00:04:18;;;;;;;18.27;16.52;;;;;;;;;;5076548;28;20055;-61
2023/12/14 00:06:44;;;;;;;17.77;16.08;;;;;;;;;;5077221;28;20067;-60
2023/12/14 00:09:10;;;;;;;18.27;16.48;;;;;;;;;;5075608;28;20031;-57
2023/12/14 00:11:39;;;;;;;18.27;16.48;;;;;;;;;;5075912;28;20497;-60
2023/12/14 00:14:06;;;;;;;18.98;17.17;;;;;;;;;;5076363;28;20040;-60
2023/12/14 00:16:32;;;;;;;18.95;17.15;;;;;;;;;;5076652;28;20028;-60
2023/12/14 00:18:58;;;;;;;18.58;16.77;;;;;;;;;;5076710;28;20051;-60
2023/12/14 00:21:24;;;;;;;18.77;16.98;;;;;;;;;;5076905;28;20048;-61
2023/12/14 00:23:50;;;;;;;19.13;17.33;;;;;;;;;;5076748;28;20036;-62
2023/12/14 00:26:17;;;;;;;18.60;16.80;;;;;;;;;;5076123;28;20053;-61
2023/12/14 00:28:43;;;;;;;18.73;16.92;;;;;;;;;;5075138;28;20378;-60
2023/12/14 00:31:09;;;;;;;18.70;16.90;;;;;;;;;;5073875;28;20013;-60
2023/12/14 00:33:35;;;;;;;19.00;17.20;;;;;;;;;;5072753;28;20167;-60
2023/12/14 00:36:01;;;;;;;19.20;17.40;;;;;;;;;;5071531;28;20031;-60
2023/12/14 00:38:27;;;;;;;18.63;16.83;;;;;;;;;;5073260;28;20079;-61
2023/12/14 00:40:53;;;;;;;18.75;16.95;;;;;;;;;;5073486;28;20086;-60
2023/12/14 00:43:19;;;;;;;18.73;16.92;;;;;;;;;;5072956;28;20099;-59
2023/12/14 00:45:45;;;;;;;18.63;16.83;;;;;;;;;;5073451;28;20056;-60
2023/12/14 00:48:11;;;;;;;18.92;17.13;;;;;;;;;;5073167;28;20017;-60
2023/12/14 00:50:37;;;;;;;18.98;17.17;;;;;;;;;;5071264;28;20454;-60
2023/12/14 00:53:03;;;;;;;18.95;17.15;;;;;;;;;;5072256;28;20028;-60
2023/12/14 00:55:29;;;;;;;19.20;17.40;;;;;;;;;;5072808;28;20274;-61
2023/12/14 00:57:55;;;;;;;19.05;17.25;;;;;;;;;;5072259;28;20065;-59
2023/12/14 01:00:21;;;;;;;18.10;16.30;;;;;;;;;;5072767;28;20073;-59
2023/12/14 01:02:47;;;;;;;18.13;16.33;;;;;;;;;;5072883;28;20451;-61
2023/12/14 01:05:13;;;;;;;17.88;16.10;;;;;;;;;;5071994;28;20055;-59
2023/12/14 01:07:39;;;;;;;18.20;16.40;;;;;;;;;;5071756;28;20016;-61
2023/12/14 01:10:06;;;;;;;17.77;16.08;;;;;;;;;;5071783;28;20372;-62
2023/12/14 01:12:32;;;;;;;17.63;15.93;;;;;;;;;;5069462;28;20032;-60
2023/12/14 01:14:58;;;;;;;17.85;16.15;;;;;;;;;;5071762;28;20485;-61
2023/12/14 01:17:24;;;;;;;21.83;19.80;;;;;;;;;;5072209;28;20016;-61
2023/12/14 01:19:50;;;;;;;18.10;16.30;;;;;;;;;;5072192;28;20019;-59
2023/12/14 01:22:16;;;;;;;18.50;16.70;;;;;;;;;;5072650;28;20052;-61
2023/12/14 01:24:42;;;;;;;19.42;17.63;;;;;;;;;;5078131;28;20175;-61
2023/12/14 01:27:10;;;;;;;18.73;16.92;;;;;;;;;;5073440;28;20040;-61
2023/12/14 01:29:36;;;;;;;17.70;16.00;;;;;;;;;;5073423;28;20009;-61
2023/12/14 01:32:02;;;;;;;17.77;16.08;;;;;;;;;;5084152;28;20353;-63
2023/12/14 01:34:27;;;;;;;17.92;16.15;;;;;;;;;;5079570;28;20052;-61
2023/12/14 01:36:53;;;;;;;17.48;15.77;;;;;;;;;;5075498;28;20012;-61
2023/12/14 01:39:19;;;;;;;17.63;15.93;;;;;;;;;;5072410;28;20354;-62
2023/12/14 01:41:46;;;;;;;17.45;15.75;;;;;;;;;;5073441;28;20013;-60
2023/12/14 01:44:11;;;;;;;16.98;15.27;;;;;;;;;;5073587;28;20016;-60
2023/12/14 01:46:37;;;;;;;16.92;15.23;;;;;;;;;;5073854;28;20034;-61
2023/12/14 01:49:03;;;;;;;16.40;14.70;;;;;;;;;;5073859;28;20107;-61
2023/12/14 01:51:29;;;;;;;16.83;15.13;;;;;;;;;;5073020;28;20017;-61
2023/12/14 01:53:55;;;;;;;16.77;15.07;;;;;;;;;;5071123;28;20485;-60
2023/12/14 01:56:21;;;;;;;16.80;15.10;;;;;;;;;;5072521;28;20031;-62
2023/12/14 01:58:47;;;;;;;16.92;15.23;;;;;;;;;;5081316;28;20019;-62
2023/12/14 02:01:13;;;;;;;16.65;14.95;;;;;;;;;;5080010;28;20021;-61
2023/12/14 02:03:46;;;;;;;16.98;15.27;;;;;;;;;;5079934;28;20064;-62
2023/12/14 02:06:12;;;;;;;16.45;14.75;;;;;;;;;;5080454;28;20350;-61
2023/12/14 02:08:38;;;;;;;16.17;14.48;;;;;;;;;;5072005;28;20009;-61
2023/12/14 02:11:04;;;;;;;16.27;14.55;;;;;;;;;;5071454;28;20020;-61
2023/12/14 02:13:30;;;;;;;16.02;14.32;;;;;;;;;;5070551;28;20016;-61
2023/12/14 02:15:56;;;;;;;16.20;14.50;;;;;;;;;;5076215;28;20538;-62
2023/12/14 02:18:22;;;;;;;16.42;14.73;;;;;;;;;;5078784;28;20110;-61
2023/12/14 02:20:48;;;;;;;16.40;14.70;;;;;;;;;;5078849;28;20051;-61
2023/12/14 02:23:14;;;;;;;15.93;14.23;;;;;;;;;;5078888;28;20016;-62
2023/12/14 02:25:40;;;;;;;15.93;14.23;;;;;;;;;;5086936;28;20601;-62
2023/12/14 02:28:06;;;;;;;16.13;14.43;;;;;;;;;;5091485;28;20090;-62
2023/12/14 02:30:32;;;;;;;16.40;14.70;;;;;;;;;;5099361;28;20085;-62
2023/12/14 02:32:58;;;;;;;15.98;14.27;;;;;;;;;;5099801;28;20085;-62
2023/12/14 02:35:24;;;;;;;19.13;16.35;;;;;;;;;;5099506;28;20028;-61
2023/12/14 02:37:50;;;;;;;16.13;14.43;;;;;;;;;;5080949;28;20096;-62
2023/12/14 02:40:16;;;;;;;17.30;15.50;;;;;;;;;;5099345;28;20412;-61
2023/12/14 02:42:42;;;;;;;15.98;14.27;;;;;;;;;;5099524;28;20032;-61
2023/12/14 02:45:08;;;;;;;15.80;14.10;;;;;;;;;;5099656;28;20016;-62
2023/12/14 02:47:34;;;;;;;15.88;14.18;;;;;;;;;;5099573;28;20043;-61
2023/12/14 02:50:00;;;;;;;15.80;14.10;;;;;;;;;;5099778;28;20108;-62
2023/12/14 02:52:27;;;;;;;15.90;14.20;;;;;;;;;;5100587;28;20446;-62
2023/12/14 02:54:53;;;;;;;15.85;14.15;;;;;;;;;;5100289;28;20016;-62
2023/12/14 02:57:19;;;;;;;15.30;13.52;;;;;;;;;;5100521;28;20024;-62
2023/12/14 02:59:45;;;;;;;15.50;13.80;;;;;;;;;;5100505;28;20060;-62
2023/12/14 03:02:11;;;;;;;15.20;13.27;;;;;;;;;;5100044;28;20103;-63
2023/12/14 03:04:40;;;;;;;15.38;13.68;;;;;;;;;;5082008;28;20498;-62
2023/12/14 03:07:06;;;;;;;15.20;13.32;;;;;;;;;;5100026;28;20027;-62
2023/12/14 03:09:32;;;;;;;15.00;12.93;;;;;;;;;;5081552;28;20499;-62
2023/12/14 03:11:58;;;;;;;15.05;13.25;;;;;;;;;;5099526;28;20020;-62
2023/12/14 03:14:24;;;;;;;14.88;12.65;;;;;;;;;;5100096;28;20031;-61
2023/12/14 03:16:50;;;;;;;14.93;12.63;;;;;;;;;;5099480;28;20020;-61
2023/12/14 03:19:16;;;;;;;14.75;12.07;;;;;;;;;;5099886;28;20428;-62
2023/12/14 03:21:45;;;;;;;14.80;12.18;;;;;;;;;;5099914;28;20028;-62
2023/12/14 03:24:11;;;;;;;14.70;12.00;;;;;;;;;;5082497;28;20134;-63
2023/12/14 03:26:37;;;;;;;14.63;11.75;;;;;;;;;;5099401;28;20020;-63
2023/12/14 03:29:03;;;;;;;14.77;12.18;;;;;;;;;;5097655;28;20020;-61
2023/12/14 03:31:29;;;;;;;14.65;11.55;;;;;;;;;;5097732;28;20015;-61
2023/12/14 03:33:55;;;;;;;14.45;11.10;;;;;;;;;;5096551;28;20036;-61
2023/12/14 03:36:22;;;;;;;14.40;10.90;;;;;;;;;;5096811;28;20022;-62
2023/12/14 03:38:48;;;;;;;14.38;10.88;;;;;;;;;;5079638;28;20079;-61
2023/12/14 03:41:14;;;;;;;14.30;10.82;;;;;;;;;;5097228;28;20024;-62
2023/12/14 03:43:40;;;;;;;14.45;11.20;;;;;;;;;;5097560;28;20024;-62
2023/12/14 03:46:06;;;;;;;14.60;11.60;;;;;;;;;;5098224;28;20027;-62
2023/12/14 03:48:33;;;;;;;14.50;11.35;;;;;;;;;;5098360;28;20087;-62
2023/12/14 03:51:03;;;;;;;14.55;11.30;;;;;;;;;;5098113;28;20047;-62
2023/12/14 03:53:29;;;;;;;14.52;11.38;;;;;;;;;;5096912;28;20060;-61
2023/12/14 03:55:55;;;;;;;14.50;11.30;;;;;;;;;;5096715;28;20032;-61
2023/12/14 03:58:21;;;;;;;14.63;11.35;;;;;;;;;;5096660;28;20363;-62
2023/12/14 04:00:47;;;;;;;14.50;11.40;;;;;;;;;;5097124;28;20104;-62
2023/12/14 04:03:13;;;;;;;14.50;11.25;;;;;;;;;;5097274;28;20057;-62
2023/12/14 04:05:39;;;;;;;14.68;11.80;;;;;;;;;;5097429;28;20028;-62
2023/12/14 04:08:05;;;;;;;14.45;11.05;;;;;;;;;;5078508;28;20069;-62
2023/12/14 04:10:31;;;;;;;14.30;10.85;;;;;;;;;;5097497;28;20028;-62
2023/12/14 04:12:57;;;;;;;14.40;11.05;;;;;;;;;;5097406;28;20389;-62
2023/12/14 04:15:23;;;;;;;14.40;11.02;;;;;;;;;;5097725;28;20035;-62
2023/12/14 04:17:49;;;;;;;14.48;11.20;;;;;;;;;;5097637;28;20066;-62
2023/12/14 04:20:15;;;;;;;14.32;10.80;;;;;;;;;;5098262;28;20031;-62
2023/12/14 04:22:42;;;;;;;14.30;10.80;;;;;;;;;;5097557;28;20030;-62
2023/12/14 04:25:08;;;;;;;14.20;10.43;;;;;;;;;;5097368;28;20023;-61
2023/12/14 04:27:34;;;;;;;14.10;10.50;;;;;;;;;;5097407;28;20385;-62
2023/12/14 04:30:00;;;;;;;14.20;10.32;;;;;;;;;;5098021;28;20024;-62
2023/12/14 04:32:26;;;;;;;14.02;9.88;;;;;;;;;;5097292;28;20077;-62
2023/12/14 04:34:52;;;;;;;13.88;9.43;;;;;;;;;;5097567;28;20124;-62
2023/12/14 04:37:18;;;;;;;13.68;8.95;;;;;;;;;;5098645;28;20020;-62
2023/12/14 04:39:44;;;;;;;13.55;8.48;;;;;;;;;;5097263;28;20057;-62
2023/12/14 04:42:10;;;;;;;13.45;8.43;;;;;;;;;;5098011;28;20043;-62
2023/12/14 04:44:36;;;;;;;13.38;8.18;;;;;;;;;;5097879;28;20074;-62
2023/12/14 04:47:02;;;;;;;13.35;8.00;;;;;;;;;;5080324;28;20066;-60
2023/12/14 04:49:28;;;;;;;12.95;7.60;;;;;;;;;;5098303;28;20040;-62
2023/12/14 04:51:54;;;;;;;13.23;7.78;;;;;;;;;;5098605;28;20080;-62
2023/12/14 04:54:20;;;;;;;13.50;8.20;;;;;;;;;;5098708;28;20043;-63
2023/12/14 04:56:47;;;;;;;13.65;8.02;;;;;;;;;;5098161;28;20229;-62
2023/12/14 04:59:13;;;;;;;13.13;7.70;;;;;;;;;;5097956;28;20031;-62
2023/12/14 05:01:39;;;;;;;13.10;7.78;;;;;;;;;;5099148;28;20051;-62
2023/12/14 05:04:05;;;;;;;12.90;7.60;;;;;;;;;;5099549;28;20016;-59
2023/12/14 05:06:33;;;;;;;13.63;8.70;;;;;;;;;;5099632;28;20024;-64
2023/12/14 05:09:01;;;;;;;12.73;7.45;;;;;;;;;;5099485;28;20097;-64
2023/12/14 05:11:26;;;;;;;13.05;7.60;;;;;;;;;;5099298;28;20143;-62
2023/12/14 05:13:52;;;;;;;13.00;7.60;;;;;;;;;;5099636;28;20381;-63
2023/12/14 05:16:18;;;;;;;12.70;7.40;;;;;;;;;;5099422;28;20013;-62
2023/12/14 05:18:45;;;;;;;12.90;7.47;;;;;;;;;;5099536;28;20604;-63
2023/12/14 05:21:16;;;;;;;13.10;7.60;;;;;;;;;;5099084;28;20024;-63
2023/12/14 05:23:43;;;;;;;12.40;7.28;;;;;;;;;;5098574;28;20024;-63
2023/12/14 05:26:09;;;;;;;12.75;7.38;;;;;;;;;;5099759;28;20039;-63
2023/12/14 05:28:35;;;;;;;12.20;7.07;;;;;;;;;;5099175;28;20016;-61
2023/12/14 05:31:01;;;;;;;12.55;7.30;;;;;;;;;;5098749;28;20024;-63
2023/12/14 05:33:27;;;;;;;12.27;7.10;;;;;;;;;;5098743;28;20036;-63
2023/12/14 05:35:53;;;;;;;13.05;8.43;;;;;;;;;;5098912;28;20259;-62
2023/12/14 05:38:19;;;;;;;11.90;6.93;;;;;;;;;;5098819;28;20024;-63
2023/12/14 05:40:45;;;;;;;13.52;7.72;;;;;;;;;;5098598;28;20031;-63
2023/12/14 05:43:11;;;;;;;12.75;7.35;;;;;;;;;;5098455;28;20046;-63
2023/12/14 05:45:37;;;;;;;13.05;7.60;;;;;;;;;;5099241;28;20020;-63
2023/12/14 05:48:06;;;;;;;12.60;7.30;;;;;;;;;;5081533;28;20016;-62
2023/12/14 05:50:32;;;;;;;12.57;7.32;;;;;;;;;;5097356;28;20016;-63
2023/12/14 05:52:58;;;;;;;12.48;7.20;;;;;;;;;;5099206;28;20511;-64
2023/12/14 05:55:24;;;;;;;12.82;7.40;;;;;;;;;;5098324;28;20024;-64
2023/12/14 05:57:50;;;;;;;12.50;7.20;;;;;;;;;;5097854;28;20458;-64
2023/12/14 06:00:18;;;;;;;12.50;7.25;;;;;;;;;;5098391;28;20035;-64
2023/12/14 06:02:44;;;;;;;11.73;6.80;;;;;;;;;;5098641;28;20024;-63
2023/12/14 06:05:10;;;;;;;11.80;6.90;;;;;;;;;;5098242;28;20542;-64
2023/12/14 06:07:37;;;;;;;12.00;6.95;;;;;;;;;;5097145;28;20051;-64
2023/12/14 06:10:03;;;;;;;12.30;7.10;;;;;;;;;;5078591;28;20032;-64
2023/12/14 06:12:29;;;;;;;12.60;7.30;;;;;;;;;;5096636;28;20040;-62
2023/12/14 06:14:55;;;;;;;12.57;7.30;;;;;;;;;;5077537;28;20020;-63
2023/12/14 06:17:24;;;;;;;12.77;7.40;;;;;;;;;;5094421;28;20043;-63
2023/12/14 06:19:50;;;;;;;15.30;8.63;;;;;;;;;;5098066;28;20106;-61
2023/12/14 06:22:16;;;;;;;12.52;7.30;;;;;;;;;;5097156;28;20052;-61
2023/12/14 06:24:42;;;;;;;12.48;7.20;;;;;;;;;;5096577;28;20023;-63
2023/12/14 06:27:08;;;;;;;12.32;7.20;;;;;;;;;;5078264;28;20016;-62
2023/12/14 06:29:34;;;;;;;12.65;7.40;;;;;;;;;;5095649;28;20073;-61
2023/12/14 06:32:00;;;;;;;12.30;7.20;;;;;;;;;;5095081;28;20145;-62
2023/12/14 06:34:26;;;;;;;12.63;7.80;;;;;;;;;;5095244;28;20040;-62
2023/12/14 06:36:52;;;;;;;12.23;7.13;;;;;;;;;;5083358;22;20041;-54
2023/12/14 06:39:18;;;;;;;11.95;7.00;;;;;;;;;;5069824;28;20051;-52
2023/12/14 06:41:44;;;;;;;12.88;7.85;;;;;;;;;;5069651;28;20493;-56
2023/12/14 06:44:10;;;;;;;12.30;7.10;;;;;;;;;;5069621;28;20024;-55
2023/12/14 06:46:36;;;;;;;11.35;6.63;;;;;;;;;;5065565;28;20020;-55
2023/12/14 06:49:02;;;;;;;13.68;8.57;;;;;;;;;;5064954;28;20023;-54
2023/12/14 06:51:28;;;;;;;11.13;6.47;;;;;;;;;;5062002;28;20174;-53
2023/12/14 06:53:54;;;;;;;11.18;6.57;;;;;;;;;;5057891;28;20018;-55
2023/12/14 06:56:20;;;;;;;11.02;6.43;;;;;;;;;;5049288;28;20049;-55
2023/12/14 06:58:49;;;;;;;11.00;6.50;;;;;;;;;;5065629;28;20036;-56
2023/12/14 07:01:15;;;;;;;;;;;;;;;;;;5053842;28;20409;-54
2023/12/14 07:03:42;;;;;;;10.98;6.45;;;;;;;;;;5062936;28;19912;-53
2023/12/14 07:06:08;;;;;;;10.52;6.20;;;;;;;;;;5070590;28;20517;-56
2023/12/14 07:08:34;;;;;;;11.35;6.60;;;;;;;;;;5061467;28;20019;-55
2023/12/14 07:11:00;;;;;;;11.45;6.70;;;;;;;;;;5052665;28;20104;-55
2023/12/14 07:13:26;;;;;;;11.48;6.70;;;;;;;;;;5056899;28;20098;-57
2023/12/14 07:15:52;;;;;;;11.30;6.60;;;;;;;;;;5063686;28;20017;-54
2023/12/14 07:18:18;;;;;;;11.13;6.60;;;;;;;;;;5064083;28;20032;-56
2023/12/14 07:20:44;;;;;;;13.45;9.65;;;;;;;;;;5056730;28;20030;-55
2023/12/14 07:23:10;;;;;;;11.23;6.53;;;;;;;;;;5051376;28;20033;-54
2023/12/14 07:25:36;;;;;;;11.45;6.88;;;;;;;;;;5065418;28;20021;-57
2023/12/14 07:28:02;;;;;;;11.88;6.90;;;;;;;;;;5069157;28;20422;-52
2023/12/14 07:30:28;;;;;;;12.20;7.10;;;;;;;;;;5051115;28;20088;-50
2023/12/14 07:32:54;;;;;;;11.70;7.07;;;;;;;;;;5061901;28;20017;-51
2023/12/14 07:35:20;;;;;;;19.65;8.25;;;;;;;;;;5059850;28;20009;-51
2023/12/14 07:37:46;;;;;;;11.70;6.90;;;;;;;;;;5061160;28;20017;-56
2023/12/14 07:40:12;;;;;;;11.50;6.70;;;;;;;;;;5052621;28;20021;-55
2023/12/14 07:42:38;;;;;;;11.43;6.65;;;;;;;;;;5062143;28;20017;-57
2023/12/14 07:45:05;;;;;;;12.38;7.50;;;;;;;;;;5050982;28;20036;-56
2023/12/14 07:47:31;;;;;;;11.35;6.60;;;;;;;;;;5052155;28;20028;-56
2023/12/14 07:49:57;;;;;;;11.57;6.78;;;;;;;;;;5052679;28;20016;-55
2023/12/14 07:52:23;;;;;;;12.75;6.93;;;;;;;;;;5052359;28;20128;-55
2023/12/14 07:54:48;;;;;;;11.60;6.75;;;;;;;;;;5052113;28;20009;-56
2023/12/14 07:57:14;;;;;;;11.68;6.80;;;;;;;;;;5052055;28;20490;-50
2023/12/14 07:59:40;;;;;;;11.70;6.80;;;;;;;;;;5061013;28;20025;-53
2023/12/14 08:02:06;;;;;;;11.63;6.80;;;;;;;;;;5052185;28;20045;-56
2023/12/14 08:04:33;;;;;;;12.80;8.45;;;;;;;;;;5052614;28;20628;-52
2023/12/14 08:06:59;;;;;;;12.10;7.00;;;;;;;;;;5061986;28;20020;-54
2023/12/14 08:09:25;;;;;;;11.90;6.90;;;;;;;;;;5052117;28;20430;-51
2023/12/14 08:11:52;;;;;;;12.02;7.03;;;;;;;;;;5052039;28;20021;-55
2023/12/14 08:14:18;;;;;;;12.02;7.00;;;;;;;;;;5051926;28;20032;-57
2023/12/14 08:16:44;;;;;;;12.88;7.53;;;;;;;;;;5052048;28;20025;-56
2023/12/14 08:19:10;;;;;;;12.60;7.30;;;;;;;;;;5051811;28;20112;-56
2023/12/14 08:21:36;;;;;;;12.40;7.22;;;;;;;;;;5050241;28;20044;-54
2023/12/14 08:24:03;;;;;;;12.18;7.10;;;;;;;;;;5051046;28;20406;-56
2023/12/14 08:26:29;;;;;;;12.32;7.15;;;;;;;;;;5071888;28;20013;-53
2023/12/14 08:28:54;;;;;;;12.18;7.13;;;;;;;;;;5070486;28;20022;-54
2023/12/14 08:31:20;;;;;;;12.60;7.60;;;;;;;;;;5071785;28;20332;-53
2023/12/14 08:33:46;;;;;;;12.55;7.30;;;;;;;;;;5071862;28;20028;-51
2023/12/14 08:36:15;;;;;;;12.32;7.20;;;;;;;;;;5070111;28;20028;-55
2023/12/14 08:38:41;;;;;;;12.50;7.28;;;;;;;;;;5071685;28;20355;-50
2023/12/14 08:41:07;;;;;;;12.85;7.95;;;;;;;;;;5071380;28;20067;-53
2023/12/14 08:43:33;;;;;;;12.50;7.25;;;;;;;;;;5071315;28;20020;-50
2023/12/14 08:45:59;;;;;;;12.70;7.38;;;;;;;;;;5071260;28;20570;-56
2023/12/14 08:48:25;;;;;;;12.52;7.30;;;;;;;;;;5069966;28;20016;-51
2023/12/14 08:50:55;;;;;;;12.20;7.10;;;;;;;;;;5070930;28;20392;-52
2023/12/14 08:53:21;;;;;;;12.00;7.00;;;;;;;;;;5069935;28;20608;-52
2023/12/14 08:55:47;;;;;;;12.57;7.30;;;;;;;;;;5071210;28;20076;-51
2023/12/14 08:58:13;;;;;;;13.30;8.25;;;;;;;;;;5069937;28;20372;-55
2023/12/14 09:00:39;;;;;;;12.85;7.53;;;;;;;;;;5050636;28;20037;-54
2023/12/14 09:03:05;;;;;;;12.60;7.32;;;;;;;;;;5051024;28;20459;-53
2023/12/14 09:05:31;;;;;;;12.75;7.45;;;;;;;;;;5050816;28;20075;-55
2023/12/14 09:07:59;;;;;;;13.20;8.15;;;;;;;;;;5051157;28;20085;-56
2023/12/14 09:10:25;;;;;;;12.77;7.40;;;;;;;;;;5050779;28;20070;-55
2023/12/14 09:12:51;;;;;;;12.95;8.25;;;;;;;;;;5053459;28;20424;-55
2023/12/14 09:15:17;;;;;;;12.50;7.22;;;;;;;;;;5050933;28;20489;-50
2023/12/14 09:17:43;;;;;;;12.50;7.28;;;;;;;;;;5051026;28;20020;-56
2023/12/14 09:20:11;;;;;;;12.23;7.10;;;;;;;;;;5050960;28;20025;-56
2023/12/14 09:22:37;;;;;;;12.15;7.03;;;;;;;;;;5057968;28;20028;-52
2023/12/14 09:25:03;;;;;;;12.32;7.20;;;;;;;;;;5062183;28;20471;-56
2023/12/14 09:27:29;;;;;;;12.30;7.10;;;;;;;;;;5063212;28;20021;-56
2023/12/14 09:29:56;;;;;;;12.07;7.00;;;;;;;;;;5063870;28;20659;-53
2023/12/14 09:32:22;;;;;;;11.60;6.80;;;;;;;;;;5064207;28;20036;-55
2023/12/14 09:34:48;;;;;;;11.63;6.80;;;;;;;;;;5063663;28;20017;-56
2023/12/14 09:37:14;;;;;;;12.15;7.07;;;;;;;;;;5063405;28;20486;-55
2023/12/14 09:39:40;;;;;;;12.43;7.20;;;;;;;;;;5063528;28;21711;-55
2023/12/14 09:42:08;;;;;;;13.20;7.68;;;;;;;;;;5060523;28;20478;-54
2023/12/14 09:44:35;;;;;;;12.80;7.43;;;;;;;;;;5058787;28;20017;-52
2023/12/14 09:47:02;;;;;;;13.00;7.50;;;;;;;;;;5060107;28;20661;-56
2023/12/14 09:49:29;;;;;;;12.55;7.28;;;;;;;;;;5061004;28;20048;-55
2023/12/14 09:51:56;;;;;;;12.63;7.50;;;;;;;;;;5062303;28;20050;-54
2023/12/14 09:54:22;;;;;;;12.98;7.70;;;;;;;;;;5063491;28;20040;-56
2023/12/14 09:56:49;;;;;;;11.82;6.90;;;;;;;;;;5059583;28;20016;-55
2023/12/14 09:59:15;;;;;;;12.10;7.20;;;;;;;;;;5063011;28;20055;-57
2023/12/14 10:01:41;;;;;;;11.80;6.90;;;;;;;;;;5062592;28;20054;-58
2023/12/14 10:04:07;;;;;;;12.20;7.10;;;;;;;;;;5063800;28;20028;-54
2023/12/14 10:06:33;;;;;;;12.73;8.05;;;;;;;;;;5063465;28;20039;-51
2023/12/14 10:08:59;;;;;;;13.48;9.23;;;;;;;;;;5064013;28;20119;-52
2023/12/14 10:11:25;;;;;;;11.35;6.68;;;;;;;;;;5061094;28;20095;-52
2023/12/14 10:13:51;;;;;;;13.20;7.80;;;;;;;;;;5063052;28;20070;-54
2023/12/14 10:16:27;;;;;;;12.10;7.00;;;;;;;;;;5061615;28;20040;-52
2023/12/14 10:18:53;;;;;;;11.80;6.90;;;;;;;;;;5062796;28;20029;-51
2023/12/14 10:21:19;;;;;;;12.15;7.10;;;;;;;;;;5063223;28;20024;-52
2023/12/14 10:23:46;;;;;;;11.57;6.88;;;;;;;;;;5063351;28;20027;-56
2023/12/14 10:26:12;;;;;;;13.10;8.95;;;;;;;;;;5063878;28;20016;-53
2023/12/14 10:28:40;;;;;;;12.90;8.48;;;;;;;;;;5055456;28;20077;-53
2023/12/14 10:31:06;;;;;;;12.50;7.97;;;;;;;;;;5063301;28;20082;-51
2023/12/14 10:33:32;;;;;;;12.25;7.28;;;;;;;;;;5060357;28;20487;-58
2023/12/14 10:35:59;;;;;;;11.60;7.38;;;;;;;;;;5066895;28;20478;-57
2023/12/14 10:38:26;;;;;;;11.23;6.55;;;;;;;;;;5069374;28;20051;-54
2023/12/14 10:40:53;;;;;;;10.65;6.25;;;;;;;;;;5066895;28;20028;-56
2023/12/14 10:43:19;;;;;;;12.68;7.40;;;;;;;;;;5066766;28;20108;-54
2023/12/14 10:45:45;;;;;;;10.82;6.32;;;;;;;;;;5067356;28;20038;-52
2023/12/14 10:48:13;;;;;;;10.95;6.43;;;;;;;;;;5067509;28;20017;-55
2023/12/14 10:50:39;;;;;;;13.23;7.60;;;;;;;;;;5068814;28;20051;-54
2023/12/14 10:53:06;;;;;;;11.35;6.63;;;;;;;;;;5061860;28;20025;-54
2023/12/14 10:55:37;;;;;;;11.20;6.60;;;;;;;;;;5065142;28;20031;-55
2023/12/14 10:58:04;;;;;;;11.02;6.40;;;;;;;;;;5066141;28;20021;-55
2023/12/14 11:00:31;;;;;;;11.60;6.85;;;;;;;;;;5066448;28;20070;-56
2023/12/14 11:02:57;;;;;;;11.45;6.70;;;;;;;;;;5065213;28;20070;-55
2023/12/14 11:05:29;;;;;;;11.27;6.60;;;;;;;;;;5070020;28;20470;-56
2023/12/14 11:08:09;;;;;;;11.60;7.22;;;;;;;;;;5059889;28;20074;-56
2023/12/14 11:10:39;;;;;;;11.70;6.80;;;;;;;;;;5067498;28;20021;-56
2023/12/14 11:13:10;;;;;;;14.48;8.80;;;;;;;;;;5072037;28;20024;-56
2023/12/14 11:15:37;;;;;;;12.32;8.52;;;;;;;;;;5072577;28;20024;-55
2023/12/14 11:18:20;;;;;;;11.05;6.50;;;;;;;;;;5072981;28;20024;-54
2023/12/14 11:20:46;;;;;;;12.98;8.65;;;;;;;;;;5056739;28;20486;-55
2023/12/14 11:23:13;;;;;;;16.35;9.50;;;;;;;;;;5057994;28;20036;-51
2023/12/14 11:25:40;;;;;;;21.08;9.63;;;;;;;;;;5060797;28;20073;-57
2023/12/14 11:28:10;;;;;;;13.00;7.85;;;;;;;;;;5071751;28;20127;-54
2023/12/14 11:30:36;;;;;;;11.25;7.20;;;;;;;;;;5071971;28;20036;-54
2023/12/14 11:33:03;;;;;;;13.25;7.18;;;;;;;;;;5073781;28;20043;-56
2023/12/14 11:35:29;;;;;;;10.30;6.07;;;;;;;;;;5072427;28;20024;-56
2023/12/14 11:37:57;;;;;;;10.80;6.40;;;;;;;;;;5072591;28;20021;-55
2023/12/14 11:40:26;;;;;;;13.48;8.98;;;;;;;;;;5072427;28;20017;-55
2023/12/14 11:43:01;;;;;;;18.23;11.18;;;;;;;;;;5072524;28;20017;-55
2023/12/14 11:45:27;;;;;;;16.45;9.48;;;;;;;;;;5071000;28;20115;-55
2023/12/14 11:47:53;;;;;;;13.38;9.50;;;;;;;;;;5069366;28;20028;-53
2023/12/14 11:50:20;;;;;;;11.02;6.45;;;;;;;;;;5052029;28;20017;-55
2023/12/14 11:52:46;;;;;;;11.68;6.80;;;;;;;;;;5052532;28;20024;-52
2023/12/14 11:55:12;;;;;;;10.40;6.10;;;;;;;;;;5050791;28;20132;-54
2023/12/14 11:57:38;;;;;;;11.30;6.82;;;;;;;;;;5052208;28;20020;-55
2023/12/14 12:00:05;;;;;;;17.55;11.35;;;;;;;;;;5052325;28;20114;-57
2023/12/14 12:02:31;;;;;;;14.32;7.88;;;;;;;;;;5052062;28;20021;-58
2023/12/14 12:04:57;;;;;;;10.70;6.28;;;;;;;;;;5056962;28;20074;-57
2023/12/14 12:07:23;;;;;;;13.23;6.40;;;;;;;;;;5060464;28;20377;-58
2023/12/14 12:09:49;;;;;;;11.98;6.82;;;;;;;;;;5051011;28;20103;-59
2023/12/14 12:12:15;;;;;;;11.10;6.50;;;;;;;;;;5059107;28;20013;-58
2023/12/14 12:14:41;;;;;;;11.10;6.47;;;;;;;;;;5052037;28;20021;-55
2023/12/14 12:17:08;;;;;;;11.00;6.43;;;;;;;;;;5051972;28;20096;-56
2023/12/14 12:19:37;;;;;;;11.20;6.50;;;;;;;;;;5050458;28;20027;-57
2023/12/14 12:22:04;;;;;;;12.85;7.35;;;;;;;;;;5062379;28;20020;-58
2023/12/14 12:24:30;;;;;;;11.40;6.60;;;;;;;;;;5066589;28;20024;-56
2023/12/14 12:26:56;;;;;;;11.95;7.60;;;;;;;;;;5061288;28;20017;-55
2023/12/14 12:29:23;;;;;;;11.23;6.57;;;;;;;;;;5052395;28;20598;-59
2023/12/14 12:31:49;;;;;;;11.55;6.82;;;;;;;;;;5060319;28;20021;-58
2023/12/14 12:34:15;;;;;;;12.10;7.10;;;;;;;;;;5065668;28;20025;-59
2023/12/14 12:36:41;;;;;;;30.75;27.38;;;;;;;;;;5080557;23;20040;-57
2023/12/14 12:39:08;;;;;;;11.30;6.60;;;;;;;;;;5087799;28;20028;-54
2023/12/14 12:41:34;;;;;;;11.35;6.60;;;;;;;;;;5074720;28;20415;-61
2023/12/14 12:44:05;;;;;;;11.82;6.90;;;;;;;;;;5090736;28;20110;-54
2023/12/14 12:46:38;;;;;;;11.80;6.90;;;;;;;;;;5081291;28;20369;-56
2023/12/14 12:49:05;;;;;;;11.73;6.88;;;;;;;;;;5082887;28;20313;-55
2023/12/14 12:51:31;;;;;;;11.73;6.82;;;;;;;;;;5111428;28;20606;-53
2023/12/14 12:54:00;;;;;;;10.98;6.45;;;;;;;;;;5111028;28;20118;-58
2023/12/14 12:56:27;;;;;;;11.88;6.95;;;;;;;;;;5097697;28;20046;-57
2023/12/14 12:58:53;;;;;;;11.10;6.63;;;;;;;;;;5108140;28;20408;-56
2023/12/14 13:01:23;;;;;;;11.52;6.70;;;;;;;;;;5110348;28;20023;-56
2023/12/14 13:03:56;;;;;;;12.35;7.80;;;;;;;;;;5111233;28;20055;-57
2023/12/14 13:06:23;;;;;;;11.40;6.70;;;;;;;;;;5096822;28;20044;-53
2023/12/14 13:08:49;;;;;;;14.30;7.97;;;;;;;;;;5103285;28;20209;-55
2023/12/14 13:11:15;;;;;;;11.68;7.30;;;;;;;;;;5090896;28;20104;-54
2023/12/14 13:13:43;;;;;;;11.23;6.60;;;;;;;;;;5088925;28;20105;-55
2023/12/14 13:16:09;;;;;;;11.05;6.47;;;;;;;;;;5090589;28;20071;-55
2023/12/14 13:18:35;;;;;;;10.50;6.20;;;;;;;;;;5072543;28;20024;-53
2023/12/14 13:21:01;;;;;;;10.25;6.03;;;;;;;;;;5090929;28;20409;-55
2023/12/14 13:23:27;;;;;;;11.18;6.70;;;;;;;;;;5072432;28;20028;-51
2023/12/14 13:25:53;;;;;;;11.70;7.15;;;;;;;;;;5072143;28;20019;-55
2023/12/14 13:28:19;;;;;;;11.75;6.80;;;;;;;;;;5090451;28;20024;-54
2023/12/14 13:30:45;;;;;;;12.82;7.32;;;;;;;;;;5072413;28;20158;-54
2023/12/14 13:33:12;;;;;;;10.95;6.50;;;;;;;;;;5090986;28;20035;-51
2023/12/14 13:35:38;;;;;;;12.20;7.55;;;;;;;;;;5072721;28;20020;-53
2023/12/14 13:38:04;;;;;;;14.77;8.95;;;;;;;;;;5072006;28;20032;-52
2023/12/14 13:40:30;;;;;;;11.98;7.15;;;;;;;;;;5072016;28;20095;-52
2023/12/14 13:42:59;;;;;;;15.05;8.85;;;;;;;;;;5072027;28;20024;-48
2023/12/14 13:45:29;;;;;;;11.75;7.15;;;;;;;;;;5072063;28;20020;-51
2023/12/14 13:47:55;;;;;;;10.98;6.50;;;;;;;;;;5089949;28;20055;-50
2023/12/14 13:50:21;;;;;;;12.02;6.65;;;;;;;;;;5089773;28;20103;-55
2023/12/14 13:52:47;;;;;;;11.90;6.90;;;;;;;;;;5071859;28;20034;-52
2023/12/14 13:55:13;;;;;;;10.93;6.35;;;;;;;;;;5072036;28;20131;-54
2023/12/14 13:57:39;;;;;;;11.80;6.70;;;;;;;;;;5071659;28;20064;-55
2023/12/14 14:00:06;;;;;;;11.82;7.00;;;;;;;;;;5089552;28;20411;-51
2023/12/14 14:02:33;;;;;;;11.30;6.70;;;;;;;;;;5071574;28;20028;-57
2023/12/14 14:04:59;;;;;;;14.20;7.00;;;;;;;;;;5071776;28;20076;-55
2023/12/14 14:07:25;;;;;;;10.95;6.40;;;;;;;;;;5089872;28;20032;-51
2023/12/14 14:09:51;;;;;;;11.30;6.60;;;;;;;;;;5072169;28;20026;-51
2023/12/14 14:12:17;;;;;;;11.95;8.15;;;;;;;;;;5071707;28;20103;-56
2023/12/14 14:14:43;;;;;;;10.52;6.20;;;;;;;;;;5072053;28;20470;-54
2023/12/14 14:17:09;;;;;;;11.30;6.60;;;;;;;;;;5071823;28;20024;-50
2023/12/14 14:19:35;;;;;;;10.45;6.18;;;;;;;;;;5090169;28;20108;-53
2023/12/14 14:22:01;;;;;;;10.10;5.95;;;;;;;;;;5071691;28;20063;-56